Time;durP1;ratioP1;P1;durP2;ratioP2;P2;SDS_P1;SDS_P2;PMS_P1;PMS_P2;Temp;Humidity;BMP_temperature;BMP_pressure;BME280_temperature;BME280_humidity;BME280_pressure;Samples;Min_cycle;Max_cycle;Signal;HPM_P1;HPM_P2
2022/01/19 00:01:21;;;;;;;46.97;24.90;;;3.60;99.90;;;;;;5098208;28;20472;-91
2022/01/19 00:03:54;;;;;;;38.77;24.67;;;3.60;99.90;;;;;;5100158;28;20434;-86
2022/01/19 00:06:22;;;;;;;40.17;24.23;;;3.50;99.90;;;;;;5099238;28;20469;-86
2022/01/19 00:08:53;;;;;;;40.60;23.87;;;3.30;99.90;;;;;;5081812;28;20442;-89
2022/01/19 00:11:22;;;;;;;44.43;25.30;;;3.40;99.90;;;;;;5099229;28;20437;-87
2022/01/19 00:13:51;;;;;;;48.60;25.93;;;3.30;99.90;;;;;;5098732;28;20442;-88
2022/01/19 00:16:21;;;;;;;37.83;25.50;;;3.20;99.90;;;;;;5099449;28;20498;-91
2022/01/19 00:18:51;;;;;;;45.03;27.50;;;3.10;99.90;;;;;;5097189;28;20446;-89
2022/01/19 00:21:24;;;;;;;47.20;25.13;;;3.10;99.90;;;;;;5097765;28;20445;-89
2022/01/19 00:24:07;;;;;;;47.90;25.27;;;3.10;99.90;;;;;;5097632;28;20434;-88
2022/01/19 00:26:36;;;;;;;50.80;27.23;;;3.10;99.90;;;;;;5096521;28;20492;-88
2022/01/19 00:29:03;;;;;;;48.00;26.83;;;3.20;99.90;;;;;;5097187;28;20646;-89
2022/01/19 00:31:35;;;;;;;49.57;27.80;;;3.20;99.90;;;;;;5096933;28;20430;-90
2022/01/19 00:34:08;;;;;;;51.60;31.13;;;3.10;99.90;;;;;;5096418;28;20465;-89
2022/01/19 00:36:41;;;;;;;41.90;26.97;;;3.10;99.90;;;;;;5095879;28;20445;-88
2022/01/19 00:39:11;;;;;;;40.93;26.00;;;3.10;99.90;;;;;;5095002;28;20457;-88
2022/01/19 00:41:41;;;;;;;46.93;26.47;;;3.00;99.90;;;;;;5097490;28;20610;-89
2022/01/19 00:44:14;;;;;;;42.97;26.87;;;3.00;99.90;;;;;;5100399;28;20438;-93
2022/01/19 00:46:42;;;;;;;43.40;25.50;;;2.90;99.90;;;;;;5100116;28;20485;-90
2022/01/19 00:49:11;;;;;;;45.40;28.17;;;2.80;99.90;;;;;;5101399;28;20452;-91
2022/01/19 00:51:38;;;;;;;53.15;36.85;;;2.90;99.90;;;;;;5103289;28;20444;-88
2022/01/19 00:54:08;;;;;;;49.70;31.03;;;3.00;99.90;;;;;;5102234;28;20216;-90
2022/01/19 00:56:37;;;;;;;43.47;28.20;;;2.90;99.90;;;;;;5101345;28;20465;-89
2022/01/19 00:59:10;;;;;;;45.83;29.37;;;2.90;99.90;;;;;;5099607;28;20449;-89
2022/01/19 01:01:47;;;;;;;48.37;27.43;;;2.80;99.90;;;;;;5097315;28;20452;-89
2022/01/19 01:04:14;;;;;;;42.57;26.43;;;2.80;99.90;;;;;;5097235;28;20437;-88
2022/01/19 01:06:41;;;;;;;47.93;26.97;;;2.80;99.90;;;;;;5094800;28;20479;-88
2022/01/19 01:09:11;;;;;;;42.97;26.57;;;2.60;99.90;;;;;;5095576;28;20437;-92
2022/01/19 01:11:47;;;;;;;41.43;25.97;;;2.50;99.90;;;;;;5095579;28;20461;-88
2022/01/19 01:17:13;;;;;;;44.37;25.33;;;2.50;99.90;;;;;;5097152;28;20440;-88
2022/01/19 01:19:43;;;;;;;57.43;29.00;;;2.50;99.90;;;;;;5097843;28;20444;-91
2022/01/19 01:22:13;;;;;;;60.33;29.83;;;2.60;99.90;;;;;;5095687;28;20449;-87
2022/01/19 01:24:46;;;;;;;55.60;28.80;;;2.70;99.90;;;;;;5095676;28;20452;-89
2022/01/19 01:27:14;;;;;;;88.25;44.25;;;2.80;99.90;;;;;;5095107;28;20438;-90
2022/01/19 01:29:41;;;;;;;89.17;38.50;;;3.00;99.90;;;;;;5095206;28;20196;-89
2022/01/19 01:32:09;;;;;;;74.63;33.67;;;3.00;99.90;;;;;;5093319;28;20451;-87
2022/01/19 01:34:36;;;;;;;71.50;33.07;;;2.90;99.90;;;;;;5095264;28;20477;-86
2022/01/19 01:37:04;;;;;;;97.60;34.40;;;2.80;99.90;;;;;;5094930;28;20454;-89
2022/01/19 01:39:37;;;;;;;78.90;33.93;;;2.80;99.90;;;;;;5095034;28;20438;-89
2022/01/19 01:42:10;;;;;;;83.27;35.17;;;2.80;99.90;;;;;;5093730;28;20484;-86
2022/01/19 01:44:40;;;;;;;74.67;34.57;;;2.60;99.90;;;;;;5093344;28;20452;-87
2022/01/19 01:47:14;;;;;;;74.07;31.63;;;2.60;99.90;;;;;;5094046;28;20947;-89
2022/01/19 01:55:27;;;;;;;95.87;33.37;;;2.60;99.90;;;;;;5096322;28;20425;-90
2022/01/19 01:57:56;;;;;;;79.87;33.13;;;2.40;99.90;;;;;;5096172;28;20446;-88
2022/01/19 02:00:29;;;;;;;86.80;32.20;;;2.40;99.90;;;;;;5095749;28;20449;-88
2022/01/19 02:03:01;;;;;;;67.93;29.17;;;2.20;99.90;;;;;;5095688;28;20965;-92
2022/01/19 02:05:38;;;;;;;98.63;32.87;;;2.10;99.90;;;;;;5096408;28;20434;-88
2022/01/19 02:08:19;;;;;;;119.90;35.07;;;2.10;99.90;;;;;;5095469;28;20457;-89
2022/01/19 02:11:17;;;;;;;88.73;30.10;;;2.10;99.90;;;;;;5095827;28;20446;-87
2022/01/19 02:16:47;;;;;;;88.73;32.73;;;2.10;99.90;;;;;;5094870;28;20416;-88
2022/01/19 02:22:05;;;;;;;108.97;31.40;;;2.00;99.90;;;;;;5095110;28;20429;-88
2022/01/19 02:24:43;;;;;;;151.00;37.70;;;2.00;99.90;;;;;;5096737;28;20479;-89
2022/01/19 02:41:39;;;;;;;65.17;32.33;;;2.20;99.90;;;;;;5099894;28;20188;-88
2022/01/19 02:44:11;;;;;;;73.83;31.63;;;2.30;99.90;;;;;;5098786;28;20472;-87
2022/01/19 02:46:54;;;;;;;77.60;32.03;;;2.30;99.90;;;;;;5099187;28;20516;-86
2022/01/19 02:49:27;;;;;;;57.63;27.93;;;2.30;99.90;;;;;;5098039;28;20533;-90
2022/01/19 02:51:56;;;;;;;48.60;29.27;;;2.30;99.90;;;;;;5098391;28;20444;-89
2022/01/19 02:54:30;;;;;;;47.80;29.00;;;2.30;99.90;;;;;;5098512;28;20555;-88
2022/01/19 02:57:02;;;;;;;42.20;27.43;;;2.30;99.90;;;;;;5098757;28;20452;-87
2022/01/19 02:59:46;;;;;;;45.60;27.37;;;2.40;99.90;;;;;;5098197;28;20929;-87
2022/01/19 03:10:37;;;;;;;37.43;25.30;;;2.50;99.90;;;;;;5098190;28;20462;-90
2022/01/19 03:13:04;;;;;;;40.13;26.30;;;2.50;99.90;;;;;;5099066;28;20449;-86
2022/01/19 03:15:36;;;;;;;42.80;26.63;;;2.50;99.90;;;;;;5098307;28;20539;-88
2022/01/19 03:18:06;;;;;;;37.83;25.87;;;2.40;99.90;;;;;;5097598;28;20458;-87
2022/01/19 03:20:39;;;;;;;41.47;27.30;;;2.20;99.90;;;;;;5096285;28;20442;-90
2022/01/19 03:23:16;;;;;;;35.40;25.20;;;2.30;99.90;;;;;;5098004;28;20445;-88
2022/01/19 03:25:48;;;;;;;34.40;22.60;;;2.40;99.90;;;;;;5097345;28;20463;-88
2022/01/19 03:28:17;;;;;;;30.70;22.17;;;2.50;99.90;;;;;;5097950;28;20616;-89
2022/01/19 03:30:52;;;;;;;30.40;22.00;;;2.40;99.90;;;;;;5097155;28;20434;-89
2022/01/19 03:33:19;;;;;;;29.37;21.63;;;2.60;99.90;;;;;;5097369;28;20548;-86
2022/01/19 03:35:49;;;;;;;34.03;23.77;;;2.70;99.90;;;;;;5095473;28;20495;-90
2022/01/19 03:38:19;;;;;;;32.83;22.57;;;2.80;99.90;;;;;;5096559;28;20465;-87
2022/01/19 03:40:53;;;;;;;32.70;22.73;;;2.90;99.90;;;;;;5096605;28;20430;-87
2022/01/19 03:43:20;;;;;;;39.90;22.77;;;2.80;99.90;;;;;;5096058;28;20457;-88
2022/01/19 03:45:53;;;;;;;34.20;23.90;;;2.80;99.90;;;;;;5096688;28;20858;-89
2022/01/19 03:48:36;;;;;;;33.47;22.23;;;3.00;99.90;;;;;;5097220;28;20944;-90
2022/01/19 03:51:08;;;;;;;38.78;28.63;;;3.00;99.90;;;;;;5096125;28;20457;-88
2022/01/19 03:53:36;;;;;;;37.17;24.13;;;3.10;99.90;;;;;;5096655;28;20295;-89
2022/01/19 03:56:06;;;;;;;40.10;23.93;;;3.30;99.90;;;;;;5096660;28;20437;-88
2022/01/19 03:58:36;;;;;;;38.20;22.47;;;3.40;99.90;;;;;;5096207;28;20812;-87
2022/01/19 04:01:10;;;;;;;38.80;23.20;;;3.30;99.90;;;;;;5096199;28;20575;-88
2022/01/19 04:04:02;;;;;;;36.83;22.00;;;3.30;99.90;;;;;;5096590;28;20933;-87
2022/01/19 04:06:53;;;;;;;30.07;20.50;;;3.40;99.90;;;;;;5096923;28;20485;-89
2022/01/19 04:09:21;;;;;;;40.33;22.03;;;3.40;99.90;;;;;;5096828;28;20456;-85
2022/01/19 04:11:49;;;;;;;36.23;22.33;;;3.30;99.90;;;;;;5096274;28;20817;-86
2022/01/19 04:14:26;;;;;;;34.50;21.60;;;3.20;99.90;;;;;;5096472;28;20549;-87
2022/01/19 04:16:58;;;;;;;39.60;22.17;;;3.10;99.90;;;;;;5098016;28;20456;-86
2022/01/19 04:19:30;;;;;;;32.30;19.90;;;3.10;99.90;;;;;;5098075;28;20503;-91
2022/01/19 04:22:02;;;;;;;34.37;19.83;;;3.10;99.90;;;;;;5097229;28;20886;-89
2022/01/19 04:24:35;;;;;;;30.93;19.93;;;3.10;99.90;;;;;;5098878;28;20460;-88
2022/01/19 04:30:01;;;;;;;33.40;19.70;;;3.10;99.90;;;;;;5103428;28;20460;-85
2022/01/19 04:32:36;;;;;;;30.67;19.50;;;3.20;99.90;;;;;;5105794;28;20445;-84
2022/01/19 04:35:08;;;;;;;28.37;18.40;;;3.20;99.90;;;;;;5105323;28;20448;-87
2022/01/19 04:37:54;;;;;;;31.60;19.00;;;3.30;99.90;;;;;;5102958;28;20453;-90
2022/01/19 04:49:12;;;;;;;25.80;18.43;;;3.70;99.90;;;;;;5102340;28;20430;-86
2022/01/19 05:01:36;;;;;;;25.97;18.07;;;3.70;99.90;;;;;;5101759;28;20483;-88
2022/01/19 05:03:27;;;;;;;29.90;17.20;;;4.00;99.90;;;;;;5102231;28;20931;-85
2022/01/19 05:06:05;;;;;;;22.27;16.73;;;3.90;99.90;;;;;;5104116;28;20433;-85
2022/01/19 05:08:51;;;;;;;28.80;18.23;;;4.00;99.90;;;;;;5106104;28;20480;-88
2022/01/19 05:14:06;;;;;;;28.63;18.20;;;4.00;99.90;;;;;;5104169;28;20487;-90
2022/01/19 05:16:44;;;;;;;27.83;17.40;;;4.10;99.90;;;;;;5105570;28;20441;-87
2022/01/19 05:19:16;;;;;;;28.23;17.60;;;4.00;99.90;;;;;;5106631;28;20925;-89
2022/01/19 05:21:45;;;;;;;26.07;18.07;;;3.80;99.90;;;;;;5104621;28;20456;-89
2022/01/19 05:24:12;;;;;;;24.40;17.17;;;4.00;99.90;;;;;;5105374;28;20449;-87
2022/01/19 05:26:42;;;;;;;24.37;17.13;;;4.10;99.90;;;;;;5105734;28;20479;-87
2022/01/19 05:29:10;;;;;;;24.67;17.77;;;4.20;99.90;;;;;;5106651;28;20458;-90
2022/01/19 05:31:45;;;;;;;25.50;18.30;;;4.20;99.90;;;;;;5106107;28;20810;-88
2022/01/19 05:34:30;;;;;;;28.87;18.43;;;4.20;99.90;;;;;;5106612;28;20468;-91
2022/01/19 05:36:57;;;;;;;27.77;17.40;;;4.20;99.90;;;;;;5105172;28;20454;-87
2022/01/19 05:39:34;;;;;;;25.40;16.40;;;4.10;99.90;;;;;;5104801;28;20441;-87
2022/01/19 05:42:15;;;;;;;23.13;16.70;;;3.90;99.90;;;;;;5106749;28;20481;-90
2022/01/19 05:44:48;;;;;;;29.53;18.47;;;4.00;99.90;;;;;;5105500;28;20454;-86
2022/01/19 05:47:19;;;;;;;26.10;17.27;;;4.10;99.90;;;;;;5106211;28;20675;-87
2022/01/19 05:49:48;;;;;;;25.50;17.80;;;4.10;99.90;;;;;;5105295;28;20189;-88
2022/01/19 05:52:19;;;;;;;23.63;17.47;;;4.10;99.90;;;;;;5104005;28;20429;-89
2022/01/19 05:54:50;;;;;;;25.97;17.20;;;4.00;99.90;;;;;;5105813;28;20826;-89
2022/01/19 05:57:25;;;;;;;25.17;17.53;;;4.00;99.90;;;;;;5105677;28;20430;-88
2022/01/19 05:59:55;;;;;;;25.93;17.30;;;3.90;99.90;;;;;;5107499;28;20429;-87
2022/01/19 06:02:23;;;;;;;24.97;18.23;;;4.00;99.90;;;;;;5088022;28;20450;-85
2022/01/19 06:04:51;;;;;;;24.13;17.33;;;4.10;99.90;;;;;;5085188;28;20213;-89
2022/01/19 06:07:18;;;;;;;22.33;16.57;;;4.20;99.90;;;;;;5090130;28;20317;-89
2022/01/19 06:10:01;;;;;;;22.30;16.53;;;4.30;99.90;;;;;;5086610;28;20477;-90
2022/01/19 06:12:28;;;;;;;23.03;15.83;;;4.40;99.90;;;;;;5088260;28;20194;-90
2022/01/19 06:14:56;;;;;;;20.88;16.35;;;4.40;99.90;;;;;;5086845;28;20427;-89
2022/01/19 06:17:29;;;;;;;17.93;15.00;;;4.50;99.90;;;;;;5085259;28;20197;-89
2022/01/19 06:19:59;;;;;;;16.60;14.27;;;4.60;99.90;;;;;;5088870;28;20460;-85
2022/01/19 06:22:35;;;;;;;18.73;14.30;;;4.60;99.90;;;;;;5087314;28;20216;-87
2022/01/19 06:25:01;;;;;;;19.70;15.17;;;4.70;99.90;;;;;;5101804;28;20207;-89
2022/01/19 06:27:29;;;;;;;18.00;13.33;;;4.70;99.90;;;;;;5107563;28;20276;-90
2022/01/19 06:29:56;;;;;;;16.53;13.97;;;4.70;99.90;;;;;;5108455;28;20204;-87
2022/01/19 06:32:23;;;;;;;17.80;14.30;;;4.60;99.90;;;;;;5108437;28;20279;-88
2022/01/19 06:34:57;;;;;;;18.33;14.17;;;4.60;99.90;;;;;;5108141;28;20220;-86
2022/01/19 06:37:27;;;;;;;16.70;13.80;;;4.60;99.90;;;;;;5102566;28;20196;-90
2022/01/19 06:40:00;;;;;;;19.40;14.13;;;4.70;99.90;;;;;;5107545;28;20208;-84
2022/01/19 06:42:30;;;;;;;19.30;13.90;;;4.90;99.90;;;;;;5107472;28;20205;-90
2022/01/19 06:45:05;;;;;;;17.63;14.87;;;5.00;99.90;;;;;;5106551;28;20239;-87
2022/01/19 06:47:34;;;;;;;18.83;14.07;;;5.10;99.90;;;;;;5106979;28;20212;-85
2022/01/19 06:50:11;;;;;;;19.77;14.70;;;5.10;99.90;;;;;;5107266;28;20194;-90
2022/01/19 06:52:41;;;;;;;21.05;18.83;;;5.10;99.90;;;;;;5105554;28;20426;-88
2022/01/19 06:55:10;;;;;;;22.17;16.30;;;5.40;99.90;;;;;;5106384;28;20306;-89
2022/01/19 06:57:40;;;;;;;21.10;15.80;;;5.40;99.90;;;;;;5105789;28;20574;-87
2022/01/19 07:00:10;;;;;;;19.40;15.33;;;5.40;99.90;;;;;;5100181;28;20205;-84
2022/01/19 07:02:37;;;;;;;19.30;14.77;;;5.20;99.90;;;;;;5101588;28;20262;-87
2022/01/19 07:05:05;;;;;;;21.50;15.87;;;5.20;99.90;;;;;;5103900;28;20555;-86
2022/01/19 07:07:34;;;;;;;19.83;15.43;;;5.00;99.90;;;;;;5103380;28;20213;-86
2022/01/19 07:10:04;;;;;;;20.53;15.67;;;4.90;99.90;;;;;;5101200;28;20255;-86
2022/01/19 07:12:31;;;;;;;19.73;15.03;;;4.90;99.90;;;;;;5103015;28;20637;-86
2022/01/19 07:14:58;;;;;;;22.70;15.83;;;4.90;99.90;;;;;;5101162;28;20221;-87
2022/01/19 07:17:31;;;;;;;19.63;15.30;;;4.90;99.90;;;;;;5105051;28;20221;-86
2022/01/19 07:20:05;;;;;;;28.43;15.97;;;4.90;99.90;;;;;;5103453;28;20208;-86
2022/01/19 07:22:32;;;;;;;22.00;15.43;;;4.90;99.90;;;;;;5105193;28;20201;-88
2022/01/19 07:25:01;;;;;;;19.37;15.60;;;4.80;99.90;;;;;;5103086;28;20209;-83
2022/01/19 07:27:34;;;;;;;19.33;15.50;;;4.80;99.90;;;;;;5102554;28;20324;-87
2022/01/19 07:30:02;;;;;;;23.03;16.10;;;4.80;99.90;;;;;;5105278;28;20201;-91
2022/01/19 07:32:33;;;;;;;21.57;16.20;;;4.70;99.90;;;;;;5101312;28;20580;-88
2022/01/19 07:35:08;;;;;;;22.83;16.67;;;4.50;99.90;;;;;;5101496;28;20209;-86
2022/01/19 07:37:37;;;;;;;20.13;15.60;;;4.60;99.90;;;;;;5101085;28;20208;-85
2022/01/19 07:40:13;;;;;;;20.70;16.17;;;4.60;99.90;;;;;;5101729;28;20204;-85
2022/01/19 07:42:43;;;;;;;19.30;16.20;;;4.70;99.90;;;;;;5099601;28;20201;-85
2022/01/19 07:45:10;;;;;;;24.17;16.23;;;4.80;99.90;;;;;;5100412;28;20213;-86
2022/01/19 07:47:43;;;;;;;20.50;15.90;;;4.90;99.90;;;;;;5099553;28;20606;-87
2022/01/19 07:50:17;;;;;;;20.53;16.63;;;5.00;99.90;;;;;;5102307;28;20189;-87
2022/01/19 07:52:50;;;;;;;19.17;17.00;;;5.10;99.90;;;;;;5102629;28;20288;-89
2022/01/19 07:55:19;;;;;;;23.10;16.40;;;5.00;99.90;;;;;;5102837;28;20243;-86
2022/01/19 07:57:52;;;;;;;25.57;16.47;;;5.10;99.90;;;;;;5105179;28;20207;-84
2022/01/19 08:00:20;;;;;;;21.33;16.40;;;5.00;99.90;;;;;;5105610;28;20193;-84
2022/01/19 08:02:50;;;;;;;24.10;16.23;;;5.00;99.90;;;;;;5103170;28;20197;-87
2022/01/19 08:05:19;;;;;;;22.65;19.48;;;5.00;99.90;;;;;;5104065;28;20430;-91
2022/01/19 08:07:46;;;;;;;22.07;17.80;;;5.10;99.90;;;;;;5106660;28;20222;-87
2022/01/19 08:10:13;;;;;;;21.20;17.57;;;5.10;99.90;;;;;;5108812;28;20201;-89
2022/01/19 08:12:49;;;;;;;22.73;16.83;;;4.90;99.90;;;;;;5110301;28;20225;-89
2022/01/19 08:15:19;;;;;;;23.33;17.87;;;4.90;99.90;;;;;;5108605;28;20238;-88
2022/01/19 08:17:50;;;;;;;20.50;16.80;;;4.90;99.90;;;;;;5108753;28;20597;-89
2022/01/19 08:20:22;;;;;;;23.53;16.43;;;4.90;99.90;;;;;;5108701;28;20212;-89
2022/01/19 08:22:57;;;;;;;22.50;15.77;;;5.00;99.90;;;;;;5108426;28;20228;-87
2022/01/19 08:25:33;;;;;;;27.70;16.27;;;4.80;99.90;;;;;;5109130;28;20448;-88
2022/01/19 08:28:02;;;;;;;21.80;17.00;;;4.80;99.90;;;;;;5102250;28;20231;-92
2022/01/19 08:30:38;;;;;;;24.47;17.53;;;4.70;99.90;;;;;;5103041;28;20624;-90
2022/01/19 08:33:06;;;;;;;23.17;18.63;;;4.80;99.90;;;;;;5101008;28;20219;-93
2022/01/19 08:35:33;;;;;;;26.07;18.83;;;4.90;99.90;;;;;;5098925;28;20199;-89
2022/01/19 08:38:02;;;;;;;34.30;20.23;;;4.90;99.90;;;;;;5099916;28;20224;-90
2022/01/19 08:40:30;;;;;;;31.10;21.17;;;4.80;99.90;;;;;;5103428;28;20253;-89
2022/01/19 08:42:58;;;;;;;30.07;20.67;;;4.80;99.90;;;;;;5111668;28;20196;-92
2022/01/19 08:45:35;;;;;;;34.20;22.73;;;4.80;99.90;;;;;;5117191;28;20218;-92
2022/01/19 08:48:05;;;;;;;28.53;20.43;;;4.80;99.90;;;;;;5118113;28;20251;-92
2022/01/19 08:50:38;;;;;;;22.73;19.37;;;4.90;99.90;;;;;;5116664;28;20200;-91
2022/01/19 08:53:05;;;;;;;24.07;18.10;;;4.80;99.90;;;;;;5117006;28;20204;-92
2022/01/19 08:55:39;;;;;;;26.50;18.40;;;5.00;99.90;;;;;;5117493;28;20636;-91
2022/01/19 08:58:24;;;;;;;21.97;17.03;;;4.90;99.90;;;;;;5117154;28;20289;-93
2022/01/19 09:00:55;;;;;;;21.10;17.77;;;4.90;99.90;;;;;;5116950;28;20194;-91
2022/01/19 09:03:23;;;;;;;22.60;16.70;;;5.00;99.90;;;;;;5115374;28;20502;-93
2022/01/19 09:05:56;;;;;;;28.10;17.90;;;5.10;99.90;;;;;;5115950;28;20185;-91
2022/01/19 09:08:31;;;;;;;27.00;18.07;;;5.20;99.90;;;;;;5116251;28;20248;-91
2022/01/19 09:11:18;;;;;;;27.93;18.73;;;5.10;99.90;;;;;;5116287;28;20688;-91
2022/01/19 09:13:49;;;;;;;31.07;18.23;;;5.00;99.90;;;;;;5117209;28;20199;-92
2022/01/19 09:16:19;;;;;;;28.07;19.47;;;5.10;99.90;;;;;;5116694;28;20235;-92
2022/01/19 09:18:47;;;;;;;25.60;18.43;;;5.20;99.90;;;;;;5116679;28;20203;-91
2022/01/19 09:21:20;;;;;;;26.20;18.13;;;5.30;99.90;;;;;;5117626;28;20219;-90
2022/01/19 09:23:51;;;;;;;27.67;18.50;;;5.20;99.90;;;;;;5120171;28;20219;-90
2022/01/19 09:26:23;;;;;;;25.07;18.53;;;5.20;99.90;;;;;;5119558;28;20272;-95
2022/01/19 09:28:53;;;;;;;23.10;17.40;;;5.20;99.90;;;;;;5117993;28;20316;-91
2022/01/19 09:31:25;;;;;;;21.93;16.70;;;5.10;99.90;;;;;;5103624;28;20316;-91
2022/01/19 09:34:08;;;;;;;21.30;16.13;;;5.00;99.90;;;;;;5099706;28;20289;-92
2022/01/19 09:36:44;;;;;;;21.00;16.07;;;5.00;99.90;;;;;;5110638;28;20216;-89
2022/01/19 09:39:13;;;;;;;21.93;17.37;;;5.00;99.90;;;;;;5101338;28;20208;-91
2022/01/19 09:41:46;;;;;;;22.20;17.60;;;5.10;99.90;;;;;;5100037;28;20288;-92
2022/01/19 09:44:25;;;;;;;21.27;17.43;;;5.00;99.90;;;;;;5094385;28;20204;-91
2022/01/19 09:46:59;;;;;;;21.83;17.03;;;5.20;99.90;;;;;;5097908;28;20204;-89
2022/01/19 09:49:30;;;;;;;20.33;17.97;;;5.20;99.90;;;;;;5096884;28;20286;-90
2022/01/19 09:51:57;;;;;;;24.10;18.10;;;5.20;99.90;;;;;;5096821;28;20288;-91
2022/01/19 09:54:27;;;;;;;24.30;20.65;;;5.40;99.90;;;;;;5096409;28;20425;-90
2022/01/19 09:57:00;;;;;;;22.20;18.90;;;5.30;99.90;;;;;;5097674;28;20215;-87
2022/01/19 09:59:29;;;;;;;20.87;17.50;;;5.40;99.90;;;;;;5104761;28;20211;-90
2022/01/19 10:02:05;;;;;;;27.13;18.03;;;5.30;99.90;;;;;;5104808;28;20220;-89
2022/01/19 10:04:35;;;;;;;20.43;16.73;;;5.30;99.90;;;;;;5105810;28;20224;-90
2022/01/19 10:07:16;;;;;;;22.87;18.13;;;5.10;99.90;;;;;;5101484;28;20283;-90
2022/01/19 10:09:56;;;;;;;21.00;18.30;;;5.00;99.90;;;;;;5097053;28;20221;-90
2022/01/19 10:18:11;;;;;;;25.93;18.87;;;5.00;99.90;;;;;;5096322;28;20616;-90
2022/01/19 10:20:38;;;;;;;26.73;18.33;;;5.00;99.90;;;;;;5094498;28;20250;-91
2022/01/19 10:23:05;;;;;;;23.73;18.90;;;5.10;99.90;;;;;;5093645;28;20285;-88
2022/01/19 10:25:49;;;;;;;32.63;19.27;;;5.10;99.90;;;;;;5092385;28;20645;-89
2022/01/19 10:28:16;;;;;;;25.03;19.17;;;5.00;99.90;;;;;;5093582;28;20221;-89
2022/01/19 10:30:43;;;;;;;30.15;22.15;;;5.10;99.90;;;;;;5092808;28;20843;-90
2022/01/19 10:33:18;;;;;;;29.73;20.80;;;5.00;99.90;;;;;;5093475;28;20228;-89
2022/01/19 10:35:48;;;;;;;28.83;18.47;;;4.90;99.90;;;;;;5093453;28;20208;-89
2022/01/19 10:38:18;;;;;;;31.40;20.00;;;4.90;99.90;;;;;;5093389;28;20216;-89
2022/01/19 10:41:05;;;;;;;32.83;18.73;;;5.10;99.90;;;;;;5093711;28;20299;-89
2022/01/19 10:43:35;;;;;;;35.60;20.70;;;5.10;99.90;;;;;;5093400;28;20220;-90
2022/01/19 10:46:22;;;;;;;32.90;19.47;;;5.00;99.90;;;;;;5096346;28;20201;-91
2022/01/19 10:48:57;;;;;;;30.80;19.53;;;5.20;99.90;;;;;;5097116;28;20278;-89
2022/01/19 10:51:24;;;;;;;30.00;19.30;;;5.10;99.90;;;;;;5097209;28;20209;-89
2022/01/19 10:54:12;;;;;;;33.07;20.40;;;5.00;99.90;;;;;;5097353;28;20205;-89
2022/01/19 10:56:41;;;;;;;32.80;20.00;;;5.10;99.90;;;;;;5097094;28;20288;-90
2022/01/19 10:59:10;;;;;;;32.57;20.87;;;5.20;99.90;;;;;;5096991;28;20209;-91
2022/01/19 11:01:42;;;;;;;35.00;20.50;;;5.20;99.90;;;;;;5096664;28;20201;-89
2022/01/19 11:04:35;;;;;;;28.47;20.47;;;5.30;99.90;;;;;;5096435;28;20209;-90
2022/01/19 11:07:04;;;;;;;32.03;21.97;;;5.30;99.90;;;;;;5081807;28;20449;-88
2022/01/19 11:09:34;;;;;;;29.77;19.90;;;5.30;99.90;;;;;;5097064;28;20481;-91
2022/01/19 11:12:06;;;;;;;31.43;20.57;;;5.30;99.90;;;;;;5096752;28;20997;-89
2022/01/19 11:14:35;;;;;;;25.60;19.43;;;5.30;99.90;;;;;;5097022;28;20205;-90
2022/01/19 11:17:02;;;;;;;33.97;19.70;;;5.20;99.90;;;;;;5097245;28;20205;-87
2022/01/19 11:19:29;;;;;;;30.63;20.93;;;5.30;99.90;;;;;;5096235;28;20192;-89
2022/01/19 11:22:22;;;;;;;29.77;21.53;;;5.20;99.90;;;;;;5096805;28;20204;-91
2022/01/19 11:25:02;;;;;;;29.07;19.63;;;5.30;99.90;;;;;;5106595;28;20215;-87
2022/01/19 11:27:37;;;;;;;28.67;19.67;;;5.40;99.90;;;;;;5105695;28;20193;-88
2022/01/19 11:30:22;;;;;;;30.03;19.93;;;5.50;99.90;;;;;;5104665;28;20209;-88
2022/01/19 11:33:18;;;;;;;30.23;20.17;;;5.50;99.90;;;;;;5095446;28;20221;-92
2022/01/19 11:35:47;;;;;;;30.85;23.95;;;5.40;99.90;;;;;;5094332;28;20418;-88
2022/01/19 11:38:36;;;;;;;28.30;21.30;;;5.40;99.90;;;;;;5096347;28;20193;-91
2022/01/19 11:41:41;;;;;;;34.60;21.37;;;5.40;99.90;;;;;;5094099;28;20198;-89
2022/01/19 11:44:10;;;;;;;27.50;20.97;;;5.40;99.90;;;;;;5094701;28;20209;-88
2022/01/19 11:46:40;;;;;;;31.03;21.13;;;5.50;99.90;;;;;;5096875;28;20198;-89
2022/01/19 11:49:13;;;;;;;33.33;21.27;;;5.50;99.90;;;;;;5097360;28;20227;-86
2022/01/19 11:51:42;;;;;;;29.17;21.50;;;5.70;99.90;;;;;;5104419;28;20194;-89
2022/01/19 11:54:31;;;;;;;32.33;20.77;;;5.90;99.90;;;;;;5109610;28;20209;-86
2022/01/19 11:57:10;;;;;;;29.00;19.43;;;5.80;99.90;;;;;;5090441;28;20204;-88
2022/01/19 12:00:10;;;;;;;30.50;20.07;;;5.70;99.90;;;;;;5091625;28;20193;-87
2022/01/19 12:02:40;;;;;;;27.97;19.57;;;5.60;99.90;;;;;;5094194;28;20197;-87
2022/01/19 12:05:36;;;;;;;27.83;20.20;;;5.50;99.90;;;;;;5090081;28;20204;-88
2022/01/19 12:08:19;;;;;;;31.08;21.85;;;5.60;99.90;;;;;;5071869;28;20439;-88
2022/01/19 12:10:51;;;;;;;31.47;19.90;;;5.50;99.90;;;;;;5075784;28;20230;-90
2022/01/19 12:16:31;;;;;;;33.70;21.23;;;5.80;99.90;;;;;;5073451;28;20223;-87
2022/01/19 12:19:20;;;;;;;31.10;20.97;;;5.70;99.90;;;;;;5075716;28;20301;-88
2022/01/19 12:21:53;;;;;;;34.47;21.43;;;5.80;99.90;;;;;;5075255;28;20217;-89
2022/01/19 12:24:26;;;;;;;37.10;20.90;;;5.70;99.90;;;;;;5074444;28;20206;-87
2022/01/19 12:26:59;;;;;;;30.27;20.93;;;5.70;99.90;;;;;;5075026;28;20210;-88
2022/01/19 12:29:50;;;;;;;28.83;20.63;;;5.70;99.90;;;;;;5074578;28;20210;-89
2022/01/19 12:32:54;;;;;;;33.17;21.50;;;5.70;99.90;;;;;;5081310;28;20230;-88
2022/01/19 12:35:24;;;;;;;31.83;20.60;;;5.80;99.90;;;;;;5094685;28;20209;-87
2022/01/19 12:37:53;;;;;;;32.00;21.17;;;5.90;99.90;;;;;;5091187;28;20219;-86
2022/01/19 12:40:49;;;;;;;35.07;22.30;;;5.80;99.90;;;;;;5083252;28;20201;-85
2022/01/19 12:43:35;;;;;;;39.00;27.05;;;6.00;99.90;;;;;;5078788;28;20428;-87
2022/01/19 12:46:10;;;;;;;30.23;21.57;;;6.10;99.90;;;;;;5091108;28;20205;-89
2022/01/19 12:48:41;;;;;;;31.63;21.30;;;6.10;99.90;;;;;;5092422;28;20554;-83
2022/01/19 12:51:37;;;;;;;31.20;20.90;;;6.00;99.90;;;;;;5094916;28;20201;-87
2022/01/19 12:54:05;;;;;;;31.47;21.40;;;5.90;99.90;;;;;;5094624;28;20193;-89
2022/01/19 12:56:34;;;;;;;30.83;21.13;;;5.90;99.90;;;;;;5095163;28;20197;-89
2022/01/19 12:59:07;;;;;;;36.07;21.93;;;6.10;99.90;;;;;;5094985;28;20203;-91
2022/01/19 13:01:35;;;;;;;33.47;21.60;;;6.20;99.90;;;;;;5095074;28;20215;-91
2022/01/19 13:04:03;;;;;;;32.47;22.33;;;6.10;99.90;;;;;;5094971;28;20212;-92
2022/01/19 13:06:33;;;;;;;31.30;20.50;;;6.00;99.90;;;;;;5095809;28;20216;-91
2022/01/19 13:09:07;;;;;;;37.43;22.47;;;6.10;99.90;;;;;;5095719;28;20232;-92
2022/01/19 13:11:38;;;;;;;33.43;22.13;;;5.90;99.90;;;;;;5102203;28;20212;-89
2022/01/19 13:14:09;;;;;;;37.20;22.23;;;5.80;99.90;;;;;;5104556;28;20273;-91
2022/01/19 13:16:40;;;;;;;37.93;23.63;;;5.90;99.90;;;;;;5108330;28;20190;-89
2022/01/19 13:19:16;;;;;;;33.90;22.67;;;5.90;99.90;;;;;;5104616;28;20211;-90
2022/01/19 13:21:46;;;;;;;39.10;24.27;;;5.90;99.90;;;;;;5105413;28;20636;-90
2022/01/19 13:24:18;;;;;;;35.90;22.90;;;5.80;99.90;;;;;;5100061;28;20708;-92
2022/01/19 13:26:54;;;;;;;32.50;21.90;;;5.80;99.90;;;;;;5095157;28;20189;-90
2022/01/19 13:29:28;;;;;;;32.83;21.60;;;5.80;99.90;;;;;;5094766;28;20229;-91
2022/01/19 13:32:04;;;;;;;32.07;21.90;;;5.90;99.90;;;;;;5094904;28;20212;-93
2022/01/19 13:34:34;;;;;;;35.33;22.23;;;5.90;99.90;;;;;;5095161;28;20204;-90
2022/01/19 13:37:03;;;;;;;34.50;23.63;;;6.00;99.90;;;;;;5095065;28;20212;-89
2022/01/19 13:39:33;;;;;;;37.40;24.33;;;6.10;99.90;;;;;;5094529;28;20215;-91
2022/01/19 13:42:01;;;;;;;32.10;22.80;;;6.10;99.90;;;;;;5094450;28;20209;-89
2022/01/19 13:44:35;;;;;;;35.83;24.03;;;6.40;99.90;;;;;;5094321;28;20299;-92
2022/01/19 13:47:10;;;;;;;35.07;23.10;;;6.30;99.90;;;;;;5094301;28;20201;-91
2022/01/19 13:49:37;;;;;;;34.67;22.43;;;6.30;99.90;;;;;;5094084;28;20230;-89
2022/01/19 13:52:05;;;;;;;38.53;25.77;;;6.30;99.90;;;;;;5093452;28;20430;-92
2022/01/19 13:54:36;;;;;;;38.77;22.93;;;6.20;99.90;;;;;;5093822;28;20209;-89
2022/01/19 13:57:03;;;;;;;51.00;23.83;;;6.20;99.90;;;;;;5094075;28;20655;-90
2022/01/19 13:59:31;;;;;;;41.27;25.90;;;6.30;99.90;;;;;;5094456;28;20212;-91
2022/01/19 14:02:00;;;;;;;38.87;23.07;;;6.20;99.90;;;;;;5094092;28;20303;-89
2022/01/19 14:04:28;;;;;;;37.50;22.97;;;6.30;99.90;;;;;;5094053;28;20262;-89
2022/01/19 14:07:03;;;;;;;36.50;24.07;;;6.30;99.90;;;;;;5093864;28;20197;-90
2022/01/19 14:09:34;;;;;;;31.07;23.07;;;6.50;99.90;;;;;;5099786;28;20245;-91
2022/01/19 14:12:10;;;;;;;29.50;21.87;;;6.30;99.90;;;;;;5099203;28;20208;-87
2022/01/19 14:14:51;;;;;;;33.70;23.43;;;6.40;99.90;;;;;;5100990;28;20279;-85